Terminal Aerodrome Forecast
Issued by NWS Bismarck, ND

Home | Current Version | Previous Version | Text Only | Print | Product List | Glossary Off
Versions: 1 2 3 4 5 6 7 8 9 10 11 12 13 14

000
FTUS43 KBIS 210525
TAFBIS
TAF
KBIS 210525Z 2106/2206 16004KT P6SM SCT050 BKN110
      TEMPO 2109/2112 -SHRA OVC060
     FM211200 VRB03KT P6SM VCSH BKN070 BKN100
     FM211900 26007KT P6SM SCT050 SCT100
     FM212000 29007KT P6SM SCT120
     FM212200 32008KT P6SM SCT200=

USA.gov is the U.S. government's official web portal to all federal, state and local government web resources and services.